Weather History for Nucla Hopkins Field Airport, CO

Change the Weather History Date:

Thursday, May 2, 2013

  Actual Average Record
Temperature  
Mean Temperature 46 °F -  
Max Temperature 59 °F - - ()
Min Temperature 32 °F - - ()
Degree Days  
Heating Degree Days 20    
Moisture  
Dew Point 6 °F    
Average Humidity 22    
Maximum Humidity 38    
Minimum Humidity 10    
Precipitation  
Precipitation 0.00 in - - ()
Sea Level Pressure  
Sea Level Pressure 30.51 in    
Wind  
Wind Speed 8 mph (NNE)    
Max Wind Speed 16 mph    
Max Gust Speed 26 mph    
Visibility 10 miles    
Events      
T = Trace of Precipitation, MM = Missing Value Source: NWS Daily Summary

Daily Weather History Graph

Daily Weather History Graph

Search for Another Location

Airport:

Trip Planner

Search our weather history database for the weather conditions in past years. The results will help you decide how hot, cold, wet, or windy it might be!

Date:

Astronomy

May. 02, 2013 Rise Set
Actual Time 6:16 AM MDT 8:06 PM MDT
Civil Twilight 5:47 AM MDT 8:35 PM MDT
Nautical Twilight 5:13 AM MDT 9:10 PM MDT
Astronomical Twilight 4:36 AM MDT 9:47 PM MDT
Moon 1:59 AM MDT (5/2) 1:05 PM MDT (5/2)
Length of Visible Light 14h 47m
Length of Day
13h 50m
Waning Gibbous, 47% of the Moon is Illuminated
May 2
Waning Gibbous
May 9
New
May 17
First Quarter
May 24
Full
May 31
Last Quarter

Hourly Weather History & Observations

Time (MDT) Temp. Windchill Dew Point Humidity Pressure Visibility Wind Dir Wind Speed Gust Speed Precip Events Conditions
12:15 AM 41.0 °F 32.8 °F 12.2 °F 31% 30.42 in 10.0 mi NNE 16.1 mph 26.5 mph N/A   Clear
12:35 AM 41.0 °F 36.4 °F 14.0 °F 33% 30.45 in 10.0 mi NNW 6.9 mph 20.7 mph N/A   Clear
12:55 AM 37.4 °F 32.8 °F 14.0 °F 38% 30.47 in 10.0 mi North 5.8 mph - N/A   Clear
1:15 AM 41.0 °F 33.9 °F 14.0 °F 33% 30.47 in 10.0 mi NNW 12.7 mph 17.3 mph N/A   Clear
1:35 AM 39.2 °F 31.6 °F 12.2 °F 33% 30.47 in 10.0 mi NNE 12.7 mph 18.4 mph N/A   Clear
1:55 AM 37.4 °F 32.8 °F 12.2 °F 36% 30.47 in 10.0 mi North 5.8 mph - N/A   Clear
2:15 AM 37.4 °F 29.8 °F 12.2 °F 36% 30.47 in 10.0 mi NNE 11.5 mph - N/A   Clear
2:35 AM 37.4 °F 31.4 °F 12.2 °F 36% 30.47 in 10.0 mi NNE 8.1 mph - N/A   Clear
2:55 AM 37.4 °F 30.8 °F 8.6 °F 30% 30.48 in 10.0 mi North 9.2 mph 17.3 mph N/A   Clear
3:15 AM 37.4 °F 30.3 °F 8.6 °F 30% 30.48 in 10.0 mi North 10.4 mph - N/A   Clear
3:35 AM 35.6 °F 32.8 °F 8.6 °F 33% 30.49 in 10.0 mi North 3.5 mph - N/A   Clear
3:55 AM 35.6 °F - 6.8 °F 30% 30.50 in 10.0 mi Calm Calm - N/A   Clear
4:15 AM 33.8 °F - 6.8 °F 32% 30.51 in 10.0 mi Calm Calm - N/A   Clear
4:35 AM 33.8 °F - 6.8 °F 32% 30.52 in 10.0 mi Calm Calm - N/A   Clear
4:55 AM 35.6 °F 31.7 °F 6.8 °F 30% 30.52 in 10.0 mi NE 4.6 mph - N/A   Clear
5:15 AM 32.0 °F 28.7 °F 6.8 °F 35% 30.53 in 10.0 mi ENE 3.5 mph - N/A   Clear
5:35 AM 33.8 °F 28.6 °F 6.8 °F 32% 30.53 in 10.0 mi ENE 5.8 mph - N/A   Clear
5:55 AM 32.0 °F 25.6 °F 6.8 °F 35% 30.54 in 10.0 mi ENE 6.9 mph - N/A   Clear
6:15 AM 33.8 °F 29.6 °F 5.0 °F 30% 30.55 in 10.0 mi NE 4.6 mph - N/A   Clear
6:35 AM 33.8 °F 28.6 °F 6.8 °F 32% 30.56 in 10.0 mi NE 5.8 mph - N/A   Clear
6:55 AM 33.8 °F 27.0 °F 6.8 °F 32% 30.57 in 10.0 mi East 8.1 mph - N/A   Clear
7:15 AM 35.6 °F - 8.6 °F 33% 30.58 in 10.0 mi Calm Calm - N/A   Clear
7:35 AM 37.4 °F 32.8 °F 8.6 °F 30% 30.59 in 10.0 mi NNE 5.8 mph - N/A   Clear
7:55 AM 37.4 °F 32.8 °F 8.6 °F 30% 30.60 in 10.0 mi NNW 5.8 mph - N/A   Clear
8:15 AM 37.4 °F - 6.8 °F 28% 30.59 in 10.0 mi Calm Calm - N/A   Clear
8:35 AM 41.0 °F 35.2 °F 8.6 °F 26% 30.59 in 10.0 mi NNE 9.2 mph - N/A   Clear
8:55 AM 41.0 °F 36.4 °F 8.6 °F 26% 30.59 in 10.0 mi NNE 6.9 mph - N/A   Clear
9:15 AM 42.8 °F 38.6 °F 8.6 °F 25% 30.58 in 10.0 mi NNE 6.9 mph 16.1 mph N/A   Clear
9:35 AM 44.6 °F 40.7 °F 8.6 °F 23% 30.58 in 10.0 mi North 6.9 mph - N/A   Clear
9:55 AM 44.6 °F 40.2 °F 8.6 °F 23% 30.57 in 10.0 mi NNE 8.1 mph - N/A   Clear
10:15 AM 46.4 °F 42.4 °F 3.2 °F 17% 30.58 in 10.0 mi NE 8.1 mph 17.3 mph N/A   Clear
10:35 AM 46.4 °F 42.4 °F 3.2 °F 17% 30.58 in 10.0 mi NE 8.1 mph 19.6 mph N/A   Clear
10:55 AM 48.2 °F - 1.4 °F 15% 30.58 in 10.0 mi NE 10.4 mph 20.7 mph N/A   Clear
11:15 AM 50.0 °F - 1.4 °F 14% 30.58 in 10.0 mi NE 10.4 mph 19.6 mph N/A   Clear
11:35 AM 50.0 °F - 1.4 °F 14% 30.58 in 10.0 mi ENE 11.5 mph 19.6 mph N/A   Clear
11:55 AM 50.0 °F - 1.4 °F 14% 30.57 in 10.0 mi NE 10.4 mph 19.6 mph N/A   Clear
12:15 PM 50.0 °F - 1.4 °F 14% 30.57 in 10.0 mi East 4.6 mph 16.1 mph N/A   Clear
12:35 PM 51.8 °F - 1.4 °F 13% 30.56 in 10.0 mi NE 6.9 mph 16.1 mph N/A   Clear
12:55 PM 51.8 °F - 1.4 °F 13% 30.55 in 10.0 mi NE 6.9 mph 18.4 mph N/A   Clear
1:15 PM 53.6 °F - 1.4 °F 12% 30.54 in 10.0 mi NE 3.5 mph - N/A   Clear
1:35 PM 51.8 °F - 1.4 °F 13% 30.54 in 10.0 mi NE 4.6 mph - N/A   Clear
1:55 PM 53.6 °F - 1.4 °F 12% 30.53 in 10.0 mi ENE 9.2 mph - N/A   Clear
2:15 PM 53.6 °F - 1.4 °F 12% 30.51 in 10.0 mi NNE 8.1 mph - N/A   Clear
2:35 PM 53.6 °F - 1.4 °F 12% 30.51 in 10.0 mi North 4.6 mph - N/A   Clear
2:55 PM 55.4 °F - 3.2 °F 12% 30.50 in 10.0 mi NNW 9.2 mph 16.1 mph N/A   Clear
3:15 PM 57.2 °F - 3.2 °F 11% 30.50 in 10.0 mi NNW 13.8 mph - N/A   Clear
3:35 PM 55.4 °F - 3.2 °F 12% 30.49 in 10.0 mi NNW 10.4 mph - N/A   Clear
3:55 PM 57.2 °F - 3.2 °F 11% 30.48 in 10.0 mi NE 8.1 mph - N/A   Clear
4:15 PM 59.0 °F - 1.4 °F 10% 30.48 in 10.0 mi NE 3.5 mph - N/A   Clear
4:35 PM 59.0 °F - 1.4 °F 10% 30.48 in 10.0 mi North 10.4 mph 18.4 mph N/A   Clear
4:55 PM 59.0 °F - 1.4 °F 10% 30.47 in 10.0 mi North 10.4 mph 16.1 mph N/A   Clear
5:15 PM 57.2 °F - 3.2 °F 11% 30.46 in 10.0 mi North 9.2 mph - N/A   Clear
5:35 PM 57.2 °F - 5.0 °F 12% 30.46 in 10.0 mi North 10.4 mph - N/A   Clear
5:55 PM 57.2 °F - 3.2 °F 11% 30.46 in 10.0 mi North 6.9 mph - N/A   Clear
6:15 PM 57.2 °F - 5.0 °F 12% 30.46 in 10.0 mi NE 5.8 mph - N/A   Clear
6:35 PM 57.2 °F - 5.0 °F 12% 30.46 in 10.0 mi NE 10.4 mph - N/A   Clear
6:55 PM 55.4 °F - 5.0 °F 13% 30.46 in 10.0 mi NNE 8.1 mph - N/A   Clear
7:15 PM 55.4 °F - 5.0 °F 13% 30.45 in 10.0 mi NNE 8.1 mph - N/A   Clear
7:35 PM 53.6 °F - 5.0 °F 14% 30.46 in 10.0 mi NNE 12.7 mph - N/A   Clear
7:55 PM 51.8 °F - 5.0 °F 15% 30.46 in 10.0 mi NNE 8.1 mph - N/A   Clear
8:15 PM 50.0 °F - 5.0 °F 16% 30.46 in 10.0 mi NE 8.1 mph - N/A   Clear
8:35 PM 48.2 °F - 5.0 °F 17% 30.46 in 10.0 mi NE 6.9 mph - N/A   Clear
8:55 PM 46.4 °F 42.9 °F 5.0 °F 18% 30.46 in 10.0 mi NNE 6.9 mph - N/A   Clear
9:15 PM 46.4 °F 42.4 °F 5.0 °F 18% 30.47 in 10.0 mi NNE 8.1 mph - N/A   Clear
9:35 PM 44.6 °F 42.2 °F 5.0 °F 20% 30.47 in 10.0 mi NE 4.6 mph - N/A   Clear
9:55 PM 42.8 °F 40.1 °F 5.0 °F 21% 30.48 in 10.0 mi East 4.6 mph - N/A   Clear
10:15 PM 44.6 °F 42.2 °F 6.8 °F 21% 30.48 in 10.0 mi ESE 4.6 mph - N/A   Clear
10:35 PM 44.6 °F - 5.0 °F 20% 30.47 in 10.0 mi North - - N/A   Clear
10:55 PM 44.6 °F - 5.0 °F 20% 30.46 in 10.0 mi North - - N/A   Clear
11:15 PM 44.6 °F - 5.0 °F 20% 30.46 in 10.0 mi Calm Calm - N/A   Clear
11:35 PM 39.2 °F 34.2 °F 5.0 °F 24% 30.45 in 10.0 mi SE 6.9 mph - N/A   Clear
11:55 PM 37.4 °F 30.3 °F 5.0 °F 26% 30.45 in 10.0 mi ESE 10.4 mph - N/A   Clear